Detall de PIREP

Printer-friendly versionPDF version

[2010/11/19 15:35:00]
Flight IATA:CT2102
Pilot Number:042
Company ICAO:CAT
Aircraft Type:B763/F
PAX:100
Departing Airport: LEVC
Destination Airport: LEBZ
Alternate Airport:LEMD
Online: VATSIM
Route:CLS UN733 CJN UN975 CCS
Flight Level:FL270
No Slew and time accel
No pause
Crash detect
Detect pilot in Cockpit between each 30 and 45 minutes
15:35 Zero fuel Weight: 244977 Lbs, Fuel Weight: 161671 Lbs
15:35 VATSIM:LEVC 191430Z VRB01KT CAVOK 15/04 Q1016 NOSIG
15:35 VATSIM:LEBZ 191400Z 28002KT 9999 FEW020 BKN045 13/11 Q1016
15:36 VOICE CATALONIAN
15:41 Parking Brakes off
15:59 Take-off
15:59 Take off Weight: 404166 Lbs
15:59 Wind: 003 @ 001 Knots Heading: 296
15:59 POS N39 29 35 W000 29 29
15:59 Gear Up: 187 Knots
15:59 Flaps:3 at 187 Knots
15:59 Flaps:2 at 194 Knots
15:59 Flaps:1 at 208 Knots
16:00 Flaps:0 at 228 Knots
16:12 TOC
16:12 Fuel Weight: 152356 Lb
16:14 Wind:295@055 Knots Heading: 298 Ground Speed: 401 Knots Altitude 26981 ft
16:29 Wind:304@074 Knots Heading: 260 Ground Speed: 405 Knots Altitude 27047 ft
16:37 TOD
16:37 Fuel Weight: 147202 Lb
16:44 Wind:295@060 Knots Heading: 261 Ground Speed: 298 Knots Altitude 20462 ft
16:54 Flaps:1 at 235 Knots
16:55 Flaps:2 at 199 Knots
16:55 Flaps:3 at 187 Knots
16:59 Wind:240@009 Knots Heading: 234 Ground Speed: 182 Knots Altitude 4153 ft
16:59 Flaps:4 at 172 Knots
17:03 Gear Down: 165 Knots
17:03 Flaps:5 at 160 Knots
17:04 Flaps:6 at 156 Knots
17:07 TouchDown:Rate -253 ft/min Speed: 141 Knots
17:07 VATSIM:LEBZ 191600Z 24009KT 9999 FEW030 BKN040 13/10 Q1016
17:07 Land
17:07 Wind:245@009 Knots
17:07 Heading: 305
17:07 Flight Duration: 01:08
17:07 Landing Weight: 387636 Lbs
17:07 POS N38 53 28 W006 49 16
17:11 Parking brakes on
17:11 Block to Block Duration: 01:30
17:11 Final Fuel: 141944 Lbls
17:11 Spent Fuel: 19726 Lbls
17:11 Flight Length: 287 NM
17:11 TOD Land Length: 48 NM

Exportar CSV

Powered by Drupal - Modified by Danger4k